sensor_id;sensor_type;location;lat;lon;timestamp;P1;durP1;ratioP1;P2;durP2;ratioP2
5133;SDS011;2585;48.696;10.066;2022-09-09T00:04:38;6.30;;;1.40;;
5133;SDS011;2585;48.696;10.066;2022-09-09T00:12:32;3.50;;;1.70;;
5133;SDS011;2585;48.696;10.066;2022-09-09T00:15:11;5.83;;;1.73;;
5133;SDS011;2585;48.696;10.066;2022-09-09T00:20:32;10.13;;;1.47;;
5133;SDS011;2585;48.696;10.066;2022-09-09T00:23:14;3.57;;;1.63;;
5133;SDS011;2585;48.696;10.066;2022-09-09T00:28:24;2.23;;;1.30;;
5133;SDS011;2585;48.696;10.066;2022-09-09T00:30:53;2.57;;;1.37;;
5133;SDS011;2585;48.696;10.066;2022-09-09T00:33:23;3.00;;;1.73;;
5133;SDS011;2585;48.696;10.066;2022-09-09T00:35:51;2.07;;;1.43;;
5133;SDS011;2585;48.696;10.066;2022-09-09T00:41:26;4.57;;;1.40;;
5133;SDS011;2585;48.696;10.066;2022-09-09T00:46:57;2.93;;;1.90;;
5133;SDS011;2585;48.696;10.066;2022-09-09T01:00:00;12.33;;;1.20;;
5133;SDS011;2585;48.696;10.066;2022-09-09T01:02:58;5.90;;;1.50;;
5133;SDS011;2585;48.696;10.066;2022-09-09T01:05:30;2.40;;;1.87;;
5133;SDS011;2585;48.696;10.066;2022-09-09T01:08:01;6.00;;;1.90;;
5133;SDS011;2585;48.696;10.066;2022-09-09T01:13:33;6.30;;;1.43;;
5133;SDS011;2585;48.696;10.066;2022-09-09T01:16:01;4.00;;;2.00;;
5133;SDS011;2585;48.696;10.066;2022-09-09T01:18:41;3.57;;;1.50;;
5133;SDS011;2585;48.696;10.066;2022-09-09T01:21:18;2.30;;;1.60;;
5133;SDS011;2585;48.696;10.066;2022-09-09T01:26:57;6.70;;;1.60;;
5133;SDS011;2585;48.696;10.066;2022-09-09T01:29:27;4.90;;;1.63;;
5133;SDS011;2585;48.696;10.066;2022-09-09T01:35:00;2.53;;;1.67;;
5133;SDS011;2585;48.696;10.066;2022-09-09T01:37:28;6.90;;;2.13;;
5133;SDS011;2585;48.696;10.066;2022-09-09T01:39:55;2.83;;;1.67;;
5133;SDS011;2585;48.696;10.066;2022-09-09T01:42:21;7.43;;;1.97;;
5133;SDS011;2585;48.696;10.066;2022-09-09T01:44:48;4.40;;;1.60;;
5133;SDS011;2585;48.696;10.066;2022-09-09T01:47:15;3.43;;;1.80;;
5133;SDS011;2585;48.696;10.066;2022-09-09T01:49:42;3.23;;;1.80;;
5133;SDS011;2585;48.696;10.066;2022-09-09T01:52:08;3.50;;;1.60;;
5133;SDS011;2585;48.696;10.066;2022-09-09T01:54:35;3.27;;;1.60;;
5133;SDS011;2585;48.696;10.066;2022-09-09T01:57:15;8.70;;;1.60;;
5133;SDS011;2585;48.696;10.066;2022-09-09T02:02:32;5.60;;;1.47;;
5133;SDS011;2585;48.696;10.066;2022-09-09T02:05:17;3.73;;;1.87;;
5133;SDS011;2585;48.696;10.066;2022-09-09T02:07:48;6.97;;;1.60;;
5133;SDS011;2585;48.696;10.066;2022-09-09T02:12:53;1.47;;;1.37;;
5133;SDS011;2585;48.696;10.066;2022-09-09T02:15:27;3.97;;;1.80;;
5133;SDS011;2585;48.696;10.066;2022-09-09T02:18:01;3.37;;;1.40;;
5133;SDS011;2585;48.696;10.066;2022-09-09T02:20:34;4.60;;;1.80;;
5133;SDS011;2585;48.696;10.066;2022-09-09T02:23:04;5.23;;;1.70;;
5133;SDS011;2585;48.696;10.066;2022-09-09T02:25:34;8.20;;;1.63;;
5133;SDS011;2585;48.696;10.066;2022-09-09T02:28:06;2.33;;;1.50;;
5133;SDS011;2585;48.696;10.066;2022-09-09T02:30:36;4.50;;;1.60;;
5133;SDS011;2585;48.696;10.066;2022-09-09T02:33:06;6.87;;;1.60;;
5133;SDS011;2585;48.696;10.066;2022-09-09T02:35:36;1.93;;;1.40;;
5133;SDS011;2585;48.696;10.066;2022-09-09T02:38:05;2.73;;;1.60;;
5133;SDS011;2585;48.696;10.066;2022-09-09T02:40:36;3.67;;;1.70;;
5133;SDS011;2585;48.696;10.066;2022-09-09T02:43:02;3.33;;;1.60;;
5133;SDS011;2585;48.696;10.066;2022-09-09T02:45:38;5.17;;;1.70;;
5133;SDS011;2585;48.696;10.066;2022-09-09T02:54:04;3.80;;;1.90;;
5133;SDS011;2585;48.696;10.066;2022-09-09T02:56:52;2.27;;;1.40;;
5133;SDS011;2585;48.696;10.066;2022-09-09T02:59:22;1.63;;;1.33;;
5133;SDS011;2585;48.696;10.066;2022-09-09T03:01:52;3.33;;;1.87;;
5133;SDS011;2585;48.696;10.066;2022-09-09T03:04:19;3.27;;;1.43;;
5133;SDS011;2585;48.696;10.066;2022-09-09T03:06:46;4.30;;;1.27;;
5133;SDS011;2585;48.696;10.066;2022-09-09T03:09:13;5.20;;;1.90;;
5133;SDS011;2585;48.696;10.066;2022-09-09T03:11:40;6.17;;;1.77;;
5133;SDS011;2585;48.696;10.066;2022-09-09T03:14:07;2.70;;;1.87;;
5133;SDS011;2585;48.696;10.066;2022-09-09T03:16:34;2.20;;;1.77;;
5133;SDS011;2585;48.696;10.066;2022-09-09T03:19:01;6.10;;;2.67;;
5133;SDS011;2585;48.696;10.066;2022-09-09T03:21:28;3.73;;;1.73;;
5133;SDS011;2585;48.696;10.066;2022-09-09T03:23:55;3.47;;;1.40;;
5133;SDS011;2585;48.696;10.066;2022-09-09T03:26:21;4.33;;;1.93;;
5133;SDS011;2585;48.696;10.066;2022-09-09T03:28:49;3.27;;;2.10;;
5133;SDS011;2585;48.696;10.066;2022-09-09T03:31:17;7.03;;;2.30;;
5133;SDS011;2585;48.696;10.066;2022-09-09T03:33:45;2.23;;;2.00;;
5133;SDS011;2585;48.696;10.066;2022-09-09T03:36:12;6.80;;;2.00;;
5133;SDS011;2585;48.696;10.066;2022-09-09T03:38:39;3.67;;;2.00;;
5133;SDS011;2585;48.696;10.066;2022-09-09T03:41:06;3.70;;;2.03;;
5133;SDS011;2585;48.696;10.066;2022-09-09T03:43:34;5.93;;;1.73;;
5133;SDS011;2585;48.696;10.066;2022-09-09T03:46:01;4.63;;;2.07;;
5133;SDS011;2585;48.696;10.066;2022-09-09T03:48:28;3.97;;;2.10;;
5133;SDS011;2585;48.696;10.066;2022-09-09T03:50:55;2.90;;;1.70;;
5133;SDS011;2585;48.696;10.066;2022-09-09T03:53:24;2.53;;;1.80;;
5133;SDS011;2585;48.696;10.066;2022-09-09T03:55:52;1.93;;;1.60;;
5133;SDS011;2585;48.696;10.066;2022-09-09T03:58:25;1.97;;;1.40;;
5133;SDS011;2585;48.696;10.066;2022-09-09T04:00:56;2.67;;;1.97;;
5133;SDS011;2585;48.696;10.066;2022-09-09T04:03:25;2.20;;;1.63;;
5133;SDS011;2585;48.696;10.066;2022-09-09T04:05:53;1.80;;;1.70;;
5133;SDS011;2585;48.696;10.066;2022-09-09T04:08:21;2.67;;;1.70;;
5133;SDS011;2585;48.696;10.066;2022-09-09T04:10:51;7.43;;;1.93;;
5133;SDS011;2585;48.696;10.066;2022-09-09T04:13:19;5.40;;;2.10;;
5133;SDS011;2585;48.696;10.066;2022-09-09T04:15:53;4.23;;;1.80;;
5133;SDS011;2585;48.696;10.066;2022-09-09T04:18:21;2.03;;;1.63;;
5133;SDS011;2585;48.696;10.066;2022-09-09T04:20:48;4.03;;;1.80;;
5133;SDS011;2585;48.696;10.066;2022-09-09T04:23:16;1.93;;;1.60;;
5133;SDS011;2585;48.696;10.066;2022-09-09T04:25:50;6.23;;;2.00;;
5133;SDS011;2585;48.696;10.066;2022-09-09T04:28:20;4.63;;;1.77;;
5133;SDS011;2585;48.696;10.066;2022-09-09T04:30:49;2.23;;;2.03;;
5133;SDS011;2585;48.696;10.066;2022-09-09T04:33:16;4.43;;;1.90;;
5133;SDS011;2585;48.696;10.066;2022-09-09T04:35:47;3.43;;;2.07;;
5133;SDS011;2585;48.696;10.066;2022-09-09T04:38:16;5.60;;;2.10;;
5133;SDS011;2585;48.696;10.066;2022-09-09T04:40:45;6.83;;;1.83;;
5133;SDS011;2585;48.696;10.066;2022-09-09T04:43:13;3.03;;;1.90;;
5133;SDS011;2585;48.696;10.066;2022-09-09T04:45:43;3.13;;;2.00;;
5133;SDS011;2585;48.696;10.066;2022-09-09T04:48:10;3.83;;;2.00;;
5133;SDS011;2585;48.696;10.066;2022-09-09T04:50:37;2.00;;;1.80;;
5133;SDS011;2585;48.696;10.066;2022-09-09T04:53:04;4.90;;;2.00;;
5133;SDS011;2585;48.696;10.066;2022-09-09T04:55:31;3.40;;;2.00;;
5133;SDS011;2585;48.696;10.066;2022-09-09T04:58:05;4.50;;;2.23;;
5133;SDS011;2585;48.696;10.066;2022-09-09T05:00:34;3.80;;;2.10;;
5133;SDS011;2585;48.696;10.066;2022-09-09T05:03:03;6.53;;;2.20;;
5133;SDS011;2585;48.696;10.066;2022-09-09T05:05:31;5.50;;;2.10;;
5133;SDS011;2585;48.696;10.066;2022-09-09T05:08:03;5.10;;;2.40;;
5133;SDS011;2585;48.696;10.066;2022-09-09T05:10:31;4.00;;;2.30;;
5133;SDS011;2585;48.696;10.066;2022-09-09T05:12:58;4.83;;;2.00;;
5133;SDS011;2585;48.696;10.066;2022-09-09T05:15:25;5.03;;;2.00;;
5133;SDS011;2585;48.696;10.066;2022-09-09T05:17:52;3.83;;;2.10;;
5133;SDS011;2585;48.696;10.066;2022-09-09T05:20:19;3.10;;;1.70;;
5133;SDS011;2585;48.696;10.066;2022-09-09T05:22:46;4.73;;;2.10;;
5133;SDS011;2585;48.696;10.066;2022-09-09T05:25:12;4.97;;;2.00;;
5133;SDS011;2585;48.696;10.066;2022-09-09T05:27:39;2.03;;;1.83;;
5133;SDS011;2585;48.696;10.066;2022-09-09T05:30:06;2.50;;;2.20;;
5133;SDS011;2585;48.696;10.066;2022-09-09T05:32:34;4.83;;;2.30;;
5133;SDS011;2585;48.696;10.066;2022-09-09T05:35:00;4.07;;;2.00;;
5133;SDS011;2585;48.696;10.066;2022-09-09T05:37:27;2.87;;;2.03;;
5133;SDS011;2585;48.696;10.066;2022-09-09T05:39:56;2.40;;;2.20;;
5133;SDS011;2585;48.696;10.066;2022-09-09T05:42:24;2.30;;;2.10;;
5133;SDS011;2585;48.696;10.066;2022-09-09T05:44:50;2.60;;;2.17;;
5133;SDS011;2585;48.696;10.066;2022-09-09T05:47:20;2.07;;;1.90;;
5133;SDS011;2585;48.696;10.066;2022-09-09T05:49:47;6.67;;;2.10;;
5133;SDS011;2585;48.696;10.066;2022-09-09T05:52:14;6.13;;;1.90;;
5133;SDS011;2585;48.696;10.066;2022-09-09T05:54:40;2.67;;;1.87;;
5133;SDS011;2585;48.696;10.066;2022-09-09T05:57:08;3.00;;;2.03;;
5133;SDS011;2585;48.696;10.066;2022-09-09T05:59:35;5.27;;;2.17;;
5133;SDS011;2585;48.696;10.066;2022-09-09T06:02:02;10.77;;;2.40;;
5133;SDS011;2585;48.696;10.066;2022-09-09T06:04:29;7.10;;;2.30;;
5133;SDS011;2585;48.696;10.066;2022-09-09T06:06:56;2.20;;;2.00;;
5133;SDS011;2585;48.696;10.066;2022-09-09T06:09:23;3.70;;;1.70;;
5133;SDS011;2585;48.696;10.066;2022-09-09T06:11:50;3.47;;;2.10;;
5133;SDS011;2585;48.696;10.066;2022-09-09T06:14:16;5.33;;;1.90;;
5133;SDS011;2585;48.696;10.066;2022-09-09T06:16:44;6.37;;;2.37;;
5133;SDS011;2585;48.696;10.066;2022-09-09T06:19:11;5.73;;;2.23;;
5133;SDS011;2585;48.696;10.066;2022-09-09T06:21:38;4.60;;;2.33;;
5133;SDS011;2585;48.696;10.066;2022-09-09T06:24:06;3.87;;;2.53;;
5133;SDS011;2585;48.696;10.066;2022-09-09T06:26:37;4.40;;;2.20;;
5133;SDS011;2585;48.696;10.066;2022-09-09T06:29:07;5.23;;;2.93;;
5133;SDS011;2585;48.696;10.066;2022-09-09T06:31:35;5.93;;;2.30;;
5133;SDS011;2585;48.696;10.066;2022-09-09T06:34:06;5.83;;;2.57;;
5133;SDS011;2585;48.696;10.066;2022-09-09T06:36:34;2.70;;;2.43;;
5133;SDS011;2585;48.696;10.066;2022-09-09T06:39:03;3.73;;;2.53;;
5133;SDS011;2585;48.696;10.066;2022-09-09T06:41:36;6.77;;;2.70;;
5133;SDS011;2585;48.696;10.066;2022-09-09T06:44:04;5.30;;;2.83;;
5133;SDS011;2585;48.696;10.066;2022-09-09T06:46:31;4.73;;;2.57;;
5133;SDS011;2585;48.696;10.066;2022-09-09T06:48:59;5.07;;;2.43;;
5133;SDS011;2585;48.696;10.066;2022-09-09T06:51:30;5.87;;;2.50;;
5133;SDS011;2585;48.696;10.066;2022-09-09T06:53:58;3.80;;;2.80;;
5133;SDS011;2585;48.696;10.066;2022-09-09T06:56:27;6.53;;;1.73;;
5133;SDS011;2585;48.696;10.066;2022-09-09T06:59:02;4.80;;;2.80;;
5133;SDS011;2585;48.696;10.066;2022-09-09T07:01:31;3.50;;;2.63;;
5133;SDS011;2585;48.696;10.066;2022-09-09T07:04:00;6.50;;;2.30;;
5133;SDS011;2585;48.696;10.066;2022-09-09T07:06:28;2.33;;;2.10;;
5133;SDS011;2585;48.696;10.066;2022-09-09T07:09:00;5.30;;;2.33;;
5133;SDS011;2585;48.696;10.066;2022-09-09T07:11:31;2.80;;;2.07;;
5133;SDS011;2585;48.696;10.066;2022-09-09T07:13:59;3.60;;;2.10;;
5133;SDS011;2585;48.696;10.066;2022-09-09T07:16:27;4.87;;;2.57;;
5133;SDS011;2585;48.696;10.066;2022-09-09T07:18:55;11.50;;;3.10;;
5133;SDS011;2585;48.696;10.066;2022-09-09T07:21:25;6.90;;;2.30;;
5133;SDS011;2585;48.696;10.066;2022-09-09T07:23:53;4.00;;;2.17;;
5133;SDS011;2585;48.696;10.066;2022-09-09T07:26:21;4.90;;;2.33;;
5133;SDS011;2585;48.696;10.066;2022-09-09T07:28:50;6.50;;;2.37;;
5133;SDS011;2585;48.696;10.066;2022-09-09T07:31:18;3.90;;;2.07;;
5133;SDS011;2585;48.696;10.066;2022-09-09T07:33:47;4.20;;;2.13;;
5133;SDS011;2585;48.696;10.066;2022-09-09T07:36:18;6.17;;;3.00;;
5133;SDS011;2585;48.696;10.066;2022-09-09T07:38:51;2.70;;;2.20;;
5133;SDS011;2585;48.696;10.066;2022-09-09T07:43:48;7.63;;;2.40;;
5133;SDS011;2585;48.696;10.066;2022-09-09T07:46:16;2.80;;;2.13;;
5133;SDS011;2585;48.696;10.066;2022-09-09T07:48:48;5.43;;;2.03;;
5133;SDS011;2585;48.696;10.066;2022-09-09T07:51:19;5.73;;;2.10;;
5133;SDS011;2585;48.696;10.066;2022-09-09T07:53:50;3.50;;;1.87;;
5133;SDS011;2585;48.696;10.066;2022-09-09T07:56:19;4.10;;;2.27;;
5133;SDS011;2585;48.696;10.066;2022-09-09T07:58:48;3.33;;;2.07;;
5133;SDS011;2585;48.696;10.066;2022-09-09T08:01:19;3.97;;;2.07;;
5133;SDS011;2585;48.696;10.066;2022-09-09T08:03:53;3.30;;;2.10;;
5133;SDS011;2585;48.696;10.066;2022-09-09T08:06:22;4.87;;;2.10;;
5133;SDS011;2585;48.696;10.066;2022-09-09T08:08:52;5.03;;;1.87;;
5133;SDS011;2585;48.696;10.066;2022-09-09T08:11:20;3.87;;;1.87;;
5133;SDS011;2585;48.696;10.066;2022-09-09T08:13:49;2.50;;;1.50;;
5133;SDS011;2585;48.696;10.066;2022-09-09T08:16:22;4.53;;;1.83;;
5133;SDS011;2585;48.696;10.066;2022-09-09T08:18:51;4.30;;;2.00;;
5133;SDS011;2585;48.696;10.066;2022-09-09T08:21:26;6.60;;;1.63;;
5133;SDS011;2585;48.696;10.066;2022-09-09T08:23:55;2.07;;;1.40;;
5133;SDS011;2585;48.696;10.066;2022-09-09T08:26:33;3.20;;;1.50;;
5133;SDS011;2585;48.696;10.066;2022-09-09T08:29:02;3.17;;;1.60;;
5133;SDS011;2585;48.696;10.066;2022-09-09T08:31:31;2.20;;;1.20;;
5133;SDS011;2585;48.696;10.066;2022-09-09T08:34:06;2.23;;;1.43;;
5133;SDS011;2585;48.696;10.066;2022-09-09T08:36:34;3.17;;;1.40;;
5133;SDS011;2585;48.696;10.066;2022-09-09T08:39:05;4.60;;;1.50;;
5133;SDS011;2585;48.696;10.066;2022-09-09T08:44:19;3.60;;;1.60;;
5133;SDS011;2585;48.696;10.066;2022-09-09T08:55:55;3.87;;;1.80;;
5133;SDS011;2585;48.696;10.066;2022-09-09T09:14:24;1.80;;;1.20;;
5133;SDS011;2585;48.696;10.066;2022-09-09T09:19:29;4.73;;;1.40;;
5133;SDS011;2585;48.696;10.066;2022-09-09T09:30:02;4.77;;;1.50;;
5133;SDS011;2585;48.696;10.066;2022-09-09T09:32:56;2.60;;;1.07;;
5133;SDS011;2585;48.696;10.066;2022-09-09T09:35:27;4.10;;;1.60;;
5133;SDS011;2585;48.696;10.066;2022-09-09T09:37:54;4.83;;;1.43;;
5133;SDS011;2585;48.696;10.066;2022-09-09T09:40:48;3.53;;;1.30;;
5133;SDS011;2585;48.696;10.066;2022-09-09T09:43:21;6.10;;;2.00;;
5133;SDS011;2585;48.696;10.066;2022-09-09T09:46:03;4.30;;;1.33;;
5133;SDS011;2585;48.696;10.066;2022-09-09T09:48:42;6.53;;;1.63;;
5133;SDS011;2585;48.696;10.066;2022-09-09T09:51:10;6.37;;;1.90;;
5133;SDS011;2585;48.696;10.066;2022-09-09T09:53:42;5.70;;;1.73;;
5133;SDS011;2585;48.696;10.066;2022-09-09T09:56:10;3.23;;;1.27;;
5133;SDS011;2585;48.696;10.066;2022-09-09T10:01:23;3.63;;;1.20;;
5133;SDS011;2585;48.696;10.066;2022-09-09T10:03:54;1.77;;;1.27;;
5133;SDS011;2585;48.696;10.066;2022-09-09T10:06:32;1.90;;;1.23;;
5133;SDS011;2585;48.696;10.066;2022-09-09T10:09:01;8.37;;;1.53;;
5133;SDS011;2585;48.696;10.066;2022-09-09T10:14:18;3.53;;;1.43;;
5133;SDS011;2585;48.696;10.066;2022-09-09T10:17:13;4.90;;;1.30;;
5133;SDS011;2585;48.696;10.066;2022-09-09T10:19:55;5.03;;;1.47;;
5133;SDS011;2585;48.696;10.066;2022-09-09T10:22:44;4.67;;;1.70;;
5133;SDS011;2585;48.696;10.066;2022-09-09T10:31:40;6.60;;;1.50;;
5133;SDS011;2585;48.696;10.066;2022-09-09T10:37:26;7.10;;;1.10;;
5133;SDS011;2585;48.696;10.066;2022-09-09T10:40:17;3.43;;;1.50;;
5133;SDS011;2585;48.696;10.066;2022-09-09T10:45:55;6.90;;;1.60;;
5133;SDS011;2585;48.696;10.066;2022-09-09T10:57:23;5.87;;;1.83;;
5133;SDS011;2585;48.696;10.066;2022-09-09T10:59:52;1.77;;;1.03;;
5133;SDS011;2585;48.696;10.066;2022-09-09T11:02:27;4.67;;;1.27;;
5133;SDS011;2585;48.696;10.066;2022-09-09T11:07:51;3.95;;;1.40;;
5133;SDS011;2585;48.696;10.066;2022-09-09T11:13:24;4.60;;;1.40;;
5133;SDS011;2585;48.696;10.066;2022-09-09T11:16:04;2.30;;;1.20;;
5133;SDS011;2585;48.696;10.066;2022-09-09T11:18:45;2.70;;;1.10;;
5133;SDS011;2585;48.696;10.066;2022-09-09T11:21:22;2.13;;;1.10;;
5133;SDS011;2585;48.696;10.066;2022-09-09T11:24:04;3.40;;;1.33;;
5133;SDS011;2585;48.696;10.066;2022-09-09T11:40:44;2.10;;;1.10;;
5133;SDS011;2585;48.696;10.066;2022-09-09T11:43:17;2.80;;;1.20;;
5133;SDS011;2585;48.696;10.066;2022-09-09T11:45:52;2.60;;;1.43;;
5133;SDS011;2585;48.696;10.066;2022-09-09T11:48:34;4.40;;;1.60;;
5133;SDS011;2585;48.696;10.066;2022-09-09T11:51:07;2.60;;;1.37;;
5133;SDS011;2585;48.696;10.066;2022-09-09T11:58:56;2.17;;;1.10;;
5133;SDS011;2585;48.696;10.066;2022-09-09T12:01:39;3.23;;;1.20;;
5133;SDS011;2585;48.696;10.066;2022-09-09T12:04:17;3.70;;;1.20;;
5133;SDS011;2585;48.696;10.066;2022-09-09T12:12:28;3.00;;;1.70;;
5133;SDS011;2585;48.696;10.066;2022-09-09T12:17:44;3.37;;;1.10;;
5133;SDS011;2585;48.696;10.066;2022-09-09T12:28:22;3.07;;;1.23;;
5133;SDS011;2585;48.696;10.066;2022-09-09T12:33:45;7.43;;;1.10;;
5133;SDS011;2585;48.696;10.066;2022-09-09T12:36:15;1.90;;;0.93;;
5133;SDS011;2585;48.696;10.066;2022-09-09T12:38:45;2.63;;;1.00;;
5133;SDS011;2585;48.696;10.066;2022-09-09T12:41:23;2.43;;;1.17;;
5133;SDS011;2585;48.696;10.066;2022-09-09T12:43:51;3.50;;;1.03;;
5133;SDS011;2585;48.696;10.066;2022-09-09T12:46:34;2.13;;;0.97;;
5133;SDS011;2585;48.696;10.066;2022-09-09T12:51:57;1.77;;;1.03;;
5133;SDS011;2585;48.696;10.066;2022-09-09T12:54:24;2.70;;;1.07;;
5133;SDS011;2585;48.696;10.066;2022-09-09T12:56:51;3.10;;;1.20;;
5133;SDS011;2585;48.696;10.066;2022-09-09T12:59:22;2.50;;;1.10;;
5133;SDS011;2585;48.696;10.066;2022-09-09T13:02:01;3.10;;;1.30;;
5133;SDS011;2585;48.696;10.066;2022-09-09T13:04:28;6.93;;;1.00;;
5133;SDS011;2585;48.696;10.066;2022-09-09T13:07:04;2.50;;;1.10;;
5133;SDS011;2585;48.696;10.066;2022-09-09T13:09:33;2.10;;;1.20;;
5133;SDS011;2585;48.696;10.066;2022-09-09T13:11:59;4.10;;;1.10;;
5133;SDS011;2585;48.696;10.066;2022-09-09T13:14:30;4.70;;;1.27;;
5133;SDS011;2585;48.696;10.066;2022-09-09T13:17:01;3.20;;;1.40;;
5133;SDS011;2585;48.696;10.066;2022-09-09T13:19:31;2.30;;;1.20;;
5133;SDS011;2585;48.696;10.066;2022-09-09T13:25:01;2.83;;;1.20;;
5133;SDS011;2585;48.696;10.066;2022-09-09T13:27:53;4.97;;;1.10;;
5133;SDS011;2585;48.696;10.066;2022-09-09T13:30:29;5.80;;;1.33;;
5133;SDS011;2585;48.696;10.066;2022-09-09T13:35:48;2.23;;;1.30;;
5133;SDS011;2585;48.696;10.066;2022-09-09T13:38:23;3.40;;;1.17;;
5133;SDS011;2585;48.696;10.066;2022-09-09T13:43:25;2.47;;;1.20;;
5133;SDS011;2585;48.696;10.066;2022-09-09T13:45:53;3.20;;;1.10;;
5133;SDS011;2585;48.696;10.066;2022-09-09T13:48:26;2.03;;;1.10;;
5133;SDS011;2585;48.696;10.066;2022-09-09T13:50:57;4.70;;;1.13;;
5133;SDS011;2585;48.696;10.066;2022-09-09T13:53:26;4.43;;;1.20;;
5133;SDS011;2585;48.696;10.066;2022-09-09T13:55:53;2.37;;;1.17;;
5133;SDS011;2585;48.696;10.066;2022-09-09T13:58:20;2.07;;;0.90;;
5133;SDS011;2585;48.696;10.066;2022-09-09T14:00:47;1.97;;;1.00;;
5133;SDS011;2585;48.696;10.066;2022-09-09T14:03:16;2.40;;;1.20;;
5133;SDS011;2585;48.696;10.066;2022-09-09T14:05:43;2.53;;;1.13;;
5133;SDS011;2585;48.696;10.066;2022-09-09T14:08:15;7.77;;;1.00;;
5133;SDS011;2585;48.696;10.066;2022-09-09T14:10:47;2.90;;;1.00;;
5133;SDS011;2585;48.696;10.066;2022-09-09T14:13:14;2.60;;;1.07;;
5133;SDS011;2585;48.696;10.066;2022-09-09T14:15:41;1.43;;;1.00;;
5133;SDS011;2585;48.696;10.066;2022-09-09T14:18:11;3.53;;;1.10;;
5133;SDS011;2585;48.696;10.066;2022-09-09T14:20:39;2.33;;;1.03;;
5133;SDS011;2585;48.696;10.066;2022-09-09T14:23:08;3.33;;;1.20;;
5133;SDS011;2585;48.696;10.066;2022-09-09T14:25:39;1.93;;;1.00;;
5133;SDS011;2585;48.696;10.066;2022-09-09T14:28:08;1.97;;;1.00;;
5133;SDS011;2585;48.696;10.066;2022-09-09T14:30:37;4.77;;;1.20;;
5133;SDS011;2585;48.696;10.066;2022-09-09T14:33:08;6.60;;;1.10;;
5133;SDS011;2585;48.696;10.066;2022-09-09T14:35:40;1.63;;;0.90;;
5133;SDS011;2585;48.696;10.066;2022-09-09T14:38:07;4.00;;;1.30;;
5133;SDS011;2585;48.696;10.066;2022-09-09T14:40:38;1.50;;;0.90;;
5133;SDS011;2585;48.696;10.066;2022-09-09T14:43:04;2.87;;;1.20;;
5133;SDS011;2585;48.696;10.066;2022-09-09T14:45:31;1.73;;;0.90;;
5133;SDS011;2585;48.696;10.066;2022-09-09T14:47:58;1.97;;;1.20;;
5133;SDS011;2585;48.696;10.066;2022-09-09T14:50:26;7.00;;;1.10;;
5133;SDS011;2585;48.696;10.066;2022-09-09T14:52:53;2.90;;;1.17;;
5133;SDS011;2585;48.696;10.066;2022-09-09T14:55:19;2.10;;;1.00;;
5133;SDS011;2585;48.696;10.066;2022-09-09T14:57:47;1.67;;;1.10;;
5133;SDS011;2585;48.696;10.066;2022-09-09T15:00:14;4.17;;;1.20;;
5133;SDS011;2585;48.696;10.066;2022-09-09T15:02:42;3.67;;;1.10;;
5133;SDS011;2585;48.696;10.066;2022-09-09T15:05:08;2.03;;;1.00;;
5133;SDS011;2585;48.696;10.066;2022-09-09T15:07:36;4.40;;;1.50;;
5133;SDS011;2585;48.696;10.066;2022-09-09T15:10:04;4.63;;;1.20;;
5133;SDS011;2585;48.696;10.066;2022-09-09T15:12:31;1.70;;;1.10;;
5133;SDS011;2585;48.696;10.066;2022-09-09T15:14:59;3.00;;;1.00;;
5133;SDS011;2585;48.696;10.066;2022-09-09T15:17:26;3.93;;;1.17;;
5133;SDS011;2585;48.696;10.066;2022-09-09T15:19:53;2.93;;;0.97;;
5133;SDS011;2585;48.696;10.066;2022-09-09T15:22:21;1.40;;;0.87;;
5133;SDS011;2585;48.696;10.066;2022-09-09T15:24:48;2.70;;;1.10;;
5133;SDS011;2585;48.696;10.066;2022-09-09T15:27:15;1.90;;;1.20;;
5133;SDS011;2585;48.696;10.066;2022-09-09T15:29:41;2.20;;;0.90;;
5133;SDS011;2585;48.696;10.066;2022-09-09T15:32:10;3.63;;;1.20;;
5133;SDS011;2585;48.696;10.066;2022-09-09T15:34:37;3.57;;;1.37;;
5133;SDS011;2585;48.696;10.066;2022-09-09T15:37:04;3.07;;;1.13;;
5133;SDS011;2585;48.696;10.066;2022-09-09T15:39:32;3.23;;;1.50;;
5133;SDS011;2585;48.696;10.066;2022-09-09T15:42:04;1.23;;;1.00;;
5133;SDS011;2585;48.696;10.066;2022-09-09T15:44:37;1.67;;;0.93;;
5133;SDS011;2585;48.696;10.066;2022-09-09T15:47:05;5.03;;;1.20;;
5133;SDS011;2585;48.696;10.066;2022-09-09T15:49:32;2.73;;;1.20;;
5133;SDS011;2585;48.696;10.066;2022-09-09T15:51:59;2.27;;;1.10;;
5133;SDS011;2585;48.696;10.066;2022-09-09T15:54:33;1.30;;;0.90;;
5133;SDS011;2585;48.696;10.066;2022-09-09T15:57:03;3.23;;;1.00;;
5133;SDS011;2585;48.696;10.066;2022-09-09T15:59:31;2.53;;;1.20;;
5133;SDS011;2585;48.696;10.066;2022-09-09T16:02:00;2.93;;;1.40;;
5133;SDS011;2585;48.696;10.066;2022-09-09T16:04:27;6.03;;;1.50;;
5133;SDS011;2585;48.696;10.066;2022-09-09T16:06:56;1.20;;;1.00;;
5133;SDS011;2585;48.696;10.066;2022-09-09T16:09:30;3.80;;;1.47;;
5133;SDS011;2585;48.696;10.066;2022-09-09T16:11:58;3.83;;;1.40;;
5133;SDS011;2585;48.696;10.066;2022-09-09T16:14:27;3.27;;;1.10;;
5133;SDS011;2585;48.696;10.066;2022-09-09T16:16:54;6.10;;;1.40;;
5133;SDS011;2585;48.696;10.066;2022-09-09T16:19:23;4.77;;;1.20;;
5133;SDS011;2585;48.696;10.066;2022-09-09T16:21:51;2.77;;;1.30;;
5133;SDS011;2585;48.696;10.066;2022-09-09T16:24:19;5.33;;;1.13;;
5133;SDS011;2585;48.696;10.066;2022-09-09T16:26:47;2.27;;;1.07;;
5133;SDS011;2585;48.696;10.066;2022-09-09T16:29:15;1.30;;;0.93;;
5133;SDS011;2585;48.696;10.066;2022-09-09T16:31:44;3.40;;;1.00;;
5133;SDS011;2585;48.696;10.066;2022-09-09T16:34:12;3.70;;;1.00;;
5133;SDS011;2585;48.696;10.066;2022-09-09T16:36:40;6.80;;;1.10;;
5133;SDS011;2585;48.696;10.066;2022-09-09T16:39:09;2.20;;;0.93;;
5133;SDS011;2585;48.696;10.066;2022-09-09T16:41:37;3.87;;;1.10;;
5133;SDS011;2585;48.696;10.066;2022-09-09T16:44:06;2.70;;;1.17;;
5133;SDS011;2585;48.696;10.066;2022-09-09T16:46:35;2.90;;;0.90;;
5133;SDS011;2585;48.696;10.066;2022-09-09T16:49:08;3.97;;;0.90;;
5133;SDS011;2585;48.696;10.066;2022-09-09T16:54:05;3.40;;;1.10;;
5133;SDS011;2585;48.696;10.066;2022-09-09T16:56:35;10.53;;;1.10;;
5133;SDS011;2585;48.696;10.066;2022-09-09T16:59:05;2.40;;;1.10;;
5133;SDS011;2585;48.696;10.066;2022-09-09T17:01:35;1.60;;;0.90;;
5133;SDS011;2585;48.696;10.066;2022-09-09T17:04:05;3.37;;;1.10;;
5133;SDS011;2585;48.696;10.066;2022-09-09T17:06:34;5.07;;;1.50;;
5133;SDS011;2585;48.696;10.066;2022-09-09T17:09:04;1.50;;;1.10;;
5133;SDS011;2585;48.696;10.066;2022-09-09T17:11:33;2.90;;;1.10;;
5133;SDS011;2585;48.696;10.066;2022-09-09T17:14:00;1.93;;;1.10;;
5133;SDS011;2585;48.696;10.066;2022-09-09T17:16:28;3.33;;;1.20;;
5133;SDS011;2585;48.696;10.066;2022-09-09T17:18:57;3.47;;;1.10;;
5133;SDS011;2585;48.696;10.066;2022-09-09T17:21:27;3.23;;;1.10;;
5133;SDS011;2585;48.696;10.066;2022-09-09T17:23:55;1.73;;;1.07;;
5133;SDS011;2585;48.696;10.066;2022-09-09T17:26:23;4.40;;;1.17;;
5133;SDS011;2585;48.696;10.066;2022-09-09T17:28:55;2.40;;;1.20;;
5133;SDS011;2585;48.696;10.066;2022-09-09T17:31:25;2.30;;;1.20;;
5133;SDS011;2585;48.696;10.066;2022-09-09T17:33:54;4.37;;;1.40;;
5133;SDS011;2585;48.696;10.066;2022-09-09T17:36:22;4.80;;;1.10;;
5133;SDS011;2585;48.696;10.066;2022-09-09T17:38:53;3.63;;;1.00;;
5133;SDS011;2585;48.696;10.066;2022-09-09T17:41:25;3.87;;;1.13;;
5133;SDS011;2585;48.696;10.066;2022-09-09T17:43:59;7.13;;;1.20;;
5133;SDS011;2585;48.696;10.066;2022-09-09T17:46:27;2.00;;;1.20;;
5133;SDS011;2585;48.696;10.066;2022-09-09T17:48:58;3.90;;;1.20;;
5133;SDS011;2585;48.696;10.066;2022-09-09T17:51:27;1.80;;;1.13;;
5133;SDS011;2585;48.696;10.066;2022-09-09T17:54:00;5.50;;;1.20;;
5133;SDS011;2585;48.696;10.066;2022-09-09T17:56:29;1.63;;;1.37;;
5133;SDS011;2585;48.696;10.066;2022-09-09T17:58:58;2.47;;;1.40;;
5133;SDS011;2585;48.696;10.066;2022-09-09T18:01:28;2.90;;;1.20;;
5133;SDS011;2585;48.696;10.066;2022-09-09T18:03:58;9.63;;;1.40;;
5133;SDS011;2585;48.696;10.066;2022-09-09T18:06:28;4.13;;;1.33;;
5133;SDS011;2585;48.696;10.066;2022-09-09T18:09:00;2.90;;;1.30;;
5133;SDS011;2585;48.696;10.066;2022-09-09T18:11:38;2.37;;;1.47;;
5133;SDS011;2585;48.696;10.066;2022-09-09T18:14:09;2.90;;;1.10;;
5133;SDS011;2585;48.696;10.066;2022-09-09T18:16:38;2.70;;;1.20;;